createdAt,value
2022-11-21T00:03:14.126Z,1.97
2022-11-21T00:07:14.670Z,1.63
2022-11-21T00:11:15.291Z,2.00
2022-11-21T00:15:18.024Z,2.27
2022-11-21T00:19:18.286Z,2.07
2022-11-21T00:23:18.402Z,1.83
2022-11-21T00:27:18.505Z,2.60
2022-11-21T00:31:26.700Z,1.70
2022-11-21T00:35:27.168Z,1.73
2022-11-21T00:39:27.236Z,1.90
2022-11-21T00:43:27.418Z,1.60
2022-11-21T00:47:30.235Z,2.67
2022-11-21T00:51:30.391Z,3.37
2022-11-21T00:55:30.673Z,2.77
2022-11-21T00:59:31.218Z,2.83
2022-11-21T01:03:36.769Z,2.13
2022-11-21T01:07:36.998Z,5.57
2022-11-21T01:11:37.308Z,3.53
2022-11-21T01:15:37.680Z,4.67
2022-11-21T01:19:40.664Z,3.30
2022-11-21T01:23:41.230Z,6.37
2022-11-21T01:27:41.359Z,4.10
2022-11-21T01:31:41.497Z,4.67
2022-11-21T01:35:44.254Z,7.23
2022-11-21T01:39:44.384Z,5.10
2022-11-21T01:43:44.809Z,5.60
2022-11-21T01:47:44.926Z,6.07
2022-11-21T01:51:56.734Z,6.13
2022-11-21T01:55:57.373Z,3.97
2022-11-21T02:00:05.042Z,9.07
2022-11-21T02:04:09.550Z,4.93
2022-11-21T02:08:20.655Z,3.20
2022-11-21T02:12:29.128Z,5.53
2022-11-21T02:16:30.918Z,6.67
2022-11-21T02:20:33.263Z,4.67
2022-11-21T02:24:46.369Z,5.93
2022-11-21T02:28:49.181Z,4.13
2022-11-21T02:32:49.708Z,5.03
2022-11-21T02:36:51.026Z,5.90
2022-11-21T02:41:02.057Z,4.17
2022-11-21T02:45:17.298Z,5.57
2022-11-21T02:49:22.428Z,3.03
2022-11-21T02:53:22.908Z,3.13
2022-11-21T02:57:23.288Z,5.60
2022-11-21T03:01:26.336Z,4.57
2022-11-21T03:05:26.716Z,5.30
2022-11-21T03:09:27.191Z,4.50
2022-11-21T03:13:27.300Z,1.77
2022-11-21T03:17:31.492Z,2.20
2022-11-21T03:21:31.852Z,3.33
2022-11-21T03:25:32.233Z,2.20
2022-11-21T03:29:32.377Z,2.77
2022-11-21T03:33:35.152Z,3.27
2022-11-21T03:37:35.253Z,3.57
2022-11-21T03:41:35.493Z,2.93
2022-11-21T03:45:35.772Z,3.97
2022-11-21T03:49:38.532Z,1.37
2022-11-21T03:53:38.634Z,1.50
2022-11-21T03:57:38.820Z,1.23
2022-11-21T04:01:39.220Z,2.23
2022-11-21T04:05:42.043Z,2.03
2022-11-21T04:09:42.179Z,0.80
2022-11-21T04:13:42.551Z,1.77
2022-11-21T04:17:42.611Z,3.30
2022-11-21T04:21:45.378Z,1.30
2022-11-21T04:25:45.497Z,1.67
2022-11-21T04:29:45.721Z,2.30
2022-11-21T04:33:46.128Z,4.23
2022-11-21T04:37:48.848Z,3.60
2022-11-21T04:41:49.006Z,4.70
2022-11-21T04:45:49.168Z,3.20
2022-11-21T04:49:49.276Z,3.53
2022-11-21T04:53:52.193Z,6.43
2022-11-21T04:57:53.360Z,5.87
2022-11-21T05:01:53.628Z,3.17
2022-11-21T05:05:53.728Z,3.13
2022-11-21T05:09:56.671Z,3.03
2022-11-21T05:13:56.790Z,4.33
2022-11-21T05:17:56.898Z,3.60
2022-11-21T05:21:57.220Z,5.73
2022-11-21T05:25:59.904Z,2.73
2022-11-21T05:30:00.002Z,3.87
2022-11-21T05:34:00.381Z,6.50
2022-11-21T05:38:01.223Z,3.90
2022-11-21T05:42:03.951Z,5.03
2022-11-21T05:46:04.114Z,6.50
2022-11-21T05:50:04.364Z,3.47
2022-11-21T05:54:04.821Z,3.70
2022-11-21T05:58:09.108Z,4.57
2022-11-21T06:02:21.658Z,3.43
2022-11-21T06:06:24.839Z,3.77
2022-11-21T06:10:25.299Z,3.17
2022-11-21T06:14:28.386Z,6.50
2022-11-21T06:18:29.904Z,4.47
2022-11-21T06:22:30.273Z,1.77
2022-11-21T06:26:31.260Z,2.60
2022-11-21T06:30:34.134Z,2.10
2022-11-21T06:34:34.320Z,2.73
2022-11-21T06:38:34.647Z,7.60
2022-11-21T06:42:35.978Z,2.63
2022-11-21T06:46:38.700Z,2.73
2022-11-21T06:50:38.862Z,1.97
2022-11-21T06:54:39.038Z,2.50
2022-11-21T06:58:40.153Z,3.07
2022-11-21T07:02:42.834Z,4.37
2022-11-21T07:06:42.944Z,3.03
2022-11-21T07:11:03.313Z,2.03
2022-11-21T07:15:04.322Z,1.33
2022-11-21T07:19:07.053Z,4.53
2022-11-21T07:23:07.896Z,3.73
2022-11-21T07:27:07.991Z,6.07
2022-11-21T07:31:13.226Z,3.60
2022-11-21T07:35:16.835Z,4.70
2022-11-21T07:39:16.936Z,2.20
2022-11-21T07:43:17.047Z,3.17
2022-11-21T07:47:17.262Z,2.53
2022-11-21T07:51:19.989Z,2.40
2022-11-21T07:55:20.332Z,4.23
2022-11-21T07:59:21.528Z,5.00
2022-11-21T08:03:22.741Z,6.47
2022-11-21T08:07:28.355Z,4.73
2022-11-21T08:11:28.803Z,2.50
2022-11-21T08:15:28.906Z,3.50
2022-11-21T08:19:29.468Z,4.43
2022-11-21T08:23:32.758Z,3.80
2022-11-21T08:27:34.275Z,4.13
2022-11-21T08:31:34.429Z,3.87
2022-11-21T08:35:35.034Z,2.90
2022-11-21T08:39:37.931Z,4.30
2022-11-21T08:43:38.124Z,4.00
2022-11-21T08:47:38.434Z,2.47
2022-11-21T08:51:39.804Z,5.17
2022-11-21T08:55:42.565Z,5.00
2022-11-21T08:59:42.701Z,2.80
2022-11-21T09:03:42.813Z,3.00
2022-11-21T09:07:43.224Z,4.93
2022-11-21T09:11:46.097Z,7.07
2022-11-21T09:16:01.741Z,4.37
2022-11-21T09:20:02.192Z,3.83
2022-11-21T09:24:03.379Z,3.80
2022-11-21T09:28:09.195Z,4.83
2022-11-21T09:32:12.939Z,3.50
2022-11-21T09:36:13.607Z,6.30
2022-11-21T09:40:20.010Z,4.67
2022-11-21T09:45:01.577Z,6.17
2022-11-21T09:49:10.195Z,3.50
2022-11-21T09:53:17.923Z,3.73
2022-11-21T09:57:22.985Z,6.60
2022-11-21T10:01:25.951Z,3.73
2022-11-21T10:05:39.013Z,5.07
2022-11-21T10:09:57.836Z,6.90
2022-11-21T10:14:18.348Z,3.13
2022-11-21T10:18:55.040Z,3.47
2022-11-21T10:23:22.267Z,3.73
2022-11-21T10:27:34.573Z,5.50
2022-11-21T10:31:43.027Z,4.00
2022-11-21T10:35:51.415Z,3.40
2022-11-21T10:39:55.985Z,5.47
2022-11-21T10:44:21.170Z,4.00
2022-11-21T10:48:21.646Z,3.80
2022-11-21T10:52:30.136Z,2.80
2022-11-21T10:56:32.629Z,4.23
2022-11-21T11:00:45.414Z,2.63
2022-11-21T11:05:27.219Z,3.83
2022-11-21T11:09:39.883Z,4.27
2022-11-21T11:19:01.706Z,5.30
2022-11-21T11:23:50.591Z,2.57
2022-11-21T11:29:00.303Z,2.93
2022-11-21T11:33:56.432Z,6.40
2022-11-21T11:43:50.462Z,5.27
2022-11-21T11:47:57.618Z,2.07
2022-11-21T11:52:07.705Z,2.77
2022-11-21T11:56:18.521Z,3.07
2022-11-21T12:00:38.198Z,3.70
2022-11-21T12:04:48.649Z,4.07
2022-11-21T12:08:57.841Z,5.67
2022-11-21T12:13:08.144Z,6.73
2022-11-21T12:17:22.367Z,4.77
2022-11-21T12:28:13.589Z,5.30
2022-11-21T12:33:08.244Z,5.20
2022-11-21T12:37:53.319Z,7.47
2022-11-21T12:42:22.062Z,5.13
2022-11-21T12:46:42.201Z,3.47
2022-11-21T12:51:09.065Z,4.17
2022-11-21T12:55:35.570Z,2.90
2022-11-21T12:59:51.911Z,2.63
2022-11-21T13:04:05.973Z,3.13
2022-11-21T13:08:21.255Z,2.83
2022-11-21T13:12:37.451Z,3.83
2022-11-21T13:16:48.236Z,2.10
2022-11-21T13:20:55.080Z,3.77
2022-11-21T13:25:01.733Z,2.53
2022-11-21T13:29:13.771Z,2.93
2022-11-21T13:33:51.196Z,2.73
2022-11-21T13:38:10.088Z,3.63
2022-11-21T13:42:32.730Z,2.83
2022-11-21T13:47:01.936Z,3.13
2022-11-21T13:51:29.767Z,1.80
2022-11-21T13:56:01.215Z,2.07
2022-11-21T14:00:29.884Z,2.03
2022-11-21T14:05:11.694Z,2.07
2022-11-21T14:09:31.673Z,4.43
2022-11-21T14:13:40.023Z,4.47
2022-11-21T14:17:48.109Z,3.17
2022-11-21T14:21:50.439Z,2.67
2022-11-21T14:25:56.845Z,1.63
2022-11-21T14:29:59.963Z,2.27
2022-11-21T14:34:04.387Z,3.90
2022-11-21T14:38:18.088Z,3.10
2022-11-21T14:42:26.223Z,2.93
2022-11-21T14:46:35.382Z,3.17
2022-11-21T14:50:41.573Z,2.33
2022-11-21T14:55:22.437Z,2.93
2022-11-21T14:59:27.101Z,3.57
2022-11-21T15:03:41.542Z,5.77
2022-11-21T15:08:24.374Z,4.90
2022-11-21T15:12:34.945Z,9.37
2022-11-21T15:16:38.400Z,9.00
2022-11-21T15:20:53.431Z,11.80
2022-11-21T15:25:08.487Z,15.07
2022-11-21T15:29:25.940Z,23.77
2022-11-21T15:33:28.835Z,11.77
2022-11-21T15:37:34.863Z,14.43
2022-11-21T15:41:40.533Z,11.90
2022-11-21T15:45:44.681Z,14.70
2022-11-21T15:49:45.192Z,10.67
2022-11-21T15:54:05.921Z,20.87
2022-11-21T15:58:16.333Z,12.80
2022-11-21T16:02:24.453Z,19.30
2022-11-21T16:06:29.723Z,33.03
2022-11-21T16:10:37.686Z,29.40
2022-11-21T16:14:43.835Z,27.20
2022-11-21T16:18:44.472Z,30.57
2022-11-21T16:22:48.238Z,26.83
2022-11-21T16:26:55.567Z,21.70
2022-11-21T16:30:56.725Z,17.03
2022-11-21T16:34:59.357Z,16.90
2022-11-21T16:39:07.776Z,16.00
2022-11-21T16:43:15.217Z,16.30
2022-11-21T16:47:17.156Z,12.40
2022-11-21T16:51:20.922Z,29.03
2022-11-21T16:55:21.110Z,43.97
2022-11-21T16:59:24.080Z,27.20
2022-11-21T17:03:24.346Z,17.97
2022-11-21T17:07:24.597Z,21.93
2022-11-21T17:11:28.342Z,22.97
2022-11-21T17:15:31.060Z,21.50
2022-11-21T17:19:31.250Z,25.87
2022-11-21T17:23:34.220Z,20.83
2022-11-21T17:27:34.786Z,32.20
2022-11-21T17:31:37.521Z,34.77
2022-11-21T17:35:38.812Z,23.90
2022-11-21T17:39:39.212Z,22.07
2022-11-21T17:43:39.389Z,25.07
2022-11-21T17:47:42.344Z,44.10
2022-11-21T17:51:43.672Z,90.87
2022-11-21T17:55:43.758Z,161.93
2022-11-21T17:59:45.184Z,72.43
2022-11-21T18:03:48.189Z,24.13
2022-11-21T18:07:48.908Z,26.37
2022-11-21T18:11:49.084Z,32.97
2022-11-21T18:15:51.312Z,48.33
2022-11-21T18:19:54.162Z,87.70
2022-11-21T18:23:56.791Z,41.73
2022-11-21T18:27:56.949Z,50.03
2022-11-21T18:31:57.114Z,33.93
2022-11-21T18:35:59.826Z,31.83
2022-11-21T18:39:59.892Z,45.57
2022-11-21T18:44:02.478Z,62.57
2022-11-21T18:48:02.696Z,46.77
2022-11-21T18:52:05.547Z,37.00
2022-11-21T18:56:10.153Z,36.53
2022-11-21T19:00:12.961Z,52.37
2022-11-21T19:04:13.133Z,62.27
2022-11-21T19:08:16.819Z,102.00
2022-11-21T19:12:17.718Z,65.20
2022-11-21T19:16:20.766Z,37.33
2022-11-21T19:20:21.033Z,26.63
2022-11-21T19:24:23.818Z,21.73
2022-11-21T19:28:25.632Z,24.70
2022-11-21T19:32:25.735Z,19.50
2022-11-21T19:36:27.161Z,22.27
2022-11-21T19:40:51.425Z,24.17
2022-11-21T19:44:51.627Z,27.43
2022-11-21T19:48:53.650Z,26.37
2022-11-21T19:53:27.554Z,29.10
2022-11-21T19:58:30.794Z,25.47
2022-11-21T20:02:49.280Z,20.97
2022-11-21T20:07:50.763Z,21.20
2022-11-21T20:12:38.034Z,21.37
2022-11-21T20:18:01.877Z,19.97
2022-11-21T20:22:53.478Z,20.67
2022-11-21T20:27:18.897Z,37.03
2022-11-21T20:32:49.212Z,21.10
2022-11-21T20:37:52.417Z,23.57
2022-11-21T20:42:37.997Z,27.23
2022-11-21T20:47:47.029Z,20.20
2022-11-21T20:58:15.584Z,34.27
2022-11-21T21:03:20.148Z,29.20
2022-11-21T21:07:53.341Z,25.93
2022-11-21T21:12:31.606Z,28.30
2022-11-21T21:17:11.986Z,27.17
2022-11-21T21:31:46.774Z,39.20
2022-11-21T21:36:25.644Z,27.47
2022-11-21T21:40:54.017Z,17.80
2022-11-21T21:46:10.616Z,23.93
2022-11-21T21:50:52.549Z,21.50
2022-11-21T21:55:42.006Z,22.77
2022-11-21T22:00:08.145Z,18.77
2022-11-21T22:04:45.949Z,19.17
2022-11-21T22:09:04.209Z,23.33
2022-11-21T22:13:07.860Z,19.17
2022-11-21T22:17:08.272Z,22.17
2022-11-21T22:21:17.274Z,21.83
2022-11-21T22:25:20.029Z,22.17
2022-11-21T22:29:20.465Z,18.37
2022-11-21T22:33:20.583Z,17.37
2022-11-21T22:37:21.006Z,20.07
2022-11-21T22:41:27.042Z,16.73
2022-11-21T22:45:27.223Z,19.10
2022-11-21T22:49:27.393Z,15.60
2022-11-21T22:53:28.419Z,18.93
2022-11-21T22:57:31.198Z,17.60
2022-11-21T23:01:31.432Z,14.80
2022-11-21T23:05:31.552Z,17.33
2022-11-21T23:09:31.839Z,18.73
2022-11-21T23:13:35.233Z,16.27
2022-11-21T23:17:35.374Z,19.27
2022-11-21T23:21:35.568Z,18.53
2022-11-21T23:25:35.754Z,21.93
2022-11-21T23:29:38.506Z,17.90
2022-11-21T23:33:38.816Z,19.40
2022-11-21T23:37:38.973Z,17.80
2022-11-21T23:41:39.464Z,18.20
2022-11-21T23:45:42.352Z,18.00
2022-11-21T23:49:46.044Z,23.03
2022-11-21T23:53:50.158Z,19.10
2022-11-21T23:57:51.142Z,22.03
